Time;durP1;ratioP1;P1;durP2;ratioP2;P2;SDS_P1;SDS_P2;PMS_P1;PMS_P2;Temp;Humidity;BMP_temperature;BMP_pressure;BME280_temperature;BME280_humidity;BME280_pressure;Samples;Min_cycle;Max_cycle;Signal;HPM_P1;HPM_P2
2022/03/10 00:01:43;;;;;;;26.30;16.37;;;4.40;99.90;;;;;;6206200;23;20177;-80
2022/03/10 00:04:11;;;;;;;26.93;17.03;;;4.40;99.90;;;;;;6206134;23;20525;-80
2022/03/10 00:06:38;;;;;;;25.57;16.73;;;4.40;99.90;;;;;;6206220;23;20257;-78
2022/03/10 00:09:05;;;;;;;26.17;16.37;;;4.40;99.90;;;;;;6206638;23;20171;-81
2022/03/10 00:11:32;;;;;;;26.20;17.00;;;4.40;99.90;;;;;;6206722;23;20181;-79
2022/03/10 00:13:58;;;;;;;25.13;17.23;;;4.40;99.90;;;;;;6207065;23;20170;-80
2022/03/10 00:16:25;;;;;;;23.53;16.20;;;4.30;99.90;;;;;;6206319;23;20170;-78
2022/03/10 00:18:52;;;;;;;26.53;17.43;;;4.30;99.90;;;;;;6206438;23;20436;-80
2022/03/10 00:21:20;;;;;;;27.47;16.83;;;4.30;99.90;;;;;;6206558;23;20173;-81
2022/03/10 00:23:47;;;;;;;23.47;16.17;;;4.30;99.90;;;;;;6206502;23;20178;-80
2022/03/10 00:26:14;;;;;;;23.73;15.97;;;4.20;99.90;;;;;;6206418;23;20173;-79
2022/03/10 00:28:41;;;;;;;25.43;16.30;;;4.20;99.90;;;;;;6207391;23;20174;-78
2022/03/10 00:31:07;;;;;;;28.07;16.70;;;4.20;99.90;;;;;;6206044;23;20185;-78
2022/03/10 00:33:34;;;;;;;27.03;17.00;;;4.20;99.90;;;;;;6206115;23;20171;-81
2022/03/10 00:36:01;;;;;;;24.10;15.27;;;4.10;99.90;;;;;;6206127;23;20774;-80
2022/03/10 00:38:29;;;;;;;27.17;16.27;;;4.10;99.90;;;;;;6206866;23;20242;-81
2022/03/10 00:40:56;;;;;;;23.43;14.63;;;4.10;99.90;;;;;;6206141;23;20166;-79
2022/03/10 00:43:23;;;;;;;26.90;16.67;;;4.10;99.90;;;;;;6205814;23;20193;-80
2022/03/10 00:45:49;;;;;;;26.07;16.17;;;4.00;99.90;;;;;;6206576;23;20174;-79
2022/03/10 00:48:16;;;;;;;27.57;17.47;;;4.10;99.90;;;;;;6205538;23;20220;-79
2022/03/10 00:50:43;;;;;;;25.97;16.93;;;4.00;99.90;;;;;;6205646;23;20200;-78
2022/03/10 00:53:11;;;;;;;23.07;15.77;;;4.00;99.90;;;;;;6205875;23;20178;-78
2022/03/10 00:55:39;;;;;;;25.87;16.17;;;4.00;99.90;;;;;;6206146;23;20170;-78
2022/03/10 00:58:06;;;;;;;24.93;15.83;;;4.00;99.90;;;;;;6205380;23;20174;-80
2022/03/10 01:00:32;;;;;;;24.20;16.07;;;3.90;99.90;;;;;;6205792;23;20508;-78
2022/03/10 01:02:59;;;;;;;23.77;16.40;;;3.90;99.90;;;;;;6206250;23;20181;-78
2022/03/10 01:05:26;;;;;;;23.97;15.93;;;3.90;99.90;;;;;;6205619;23;20451;-79
2022/03/10 01:07:53;;;;;;;27.13;16.30;;;3.90;99.90;;;;;;6206453;23;20201;-79
2022/03/10 01:10:21;;;;;;;23.43;14.33;;;3.90;99.90;;;;;;6205963;23;20752;-79
2022/03/10 01:12:49;;;;;;;24.27;16.17;;;3.90;99.90;;;;;;6205630;23;20166;-78
2022/03/10 01:15:17;;;;;;;27.17;17.07;;;3.80;99.90;;;;;;6206463;23;20178;-79
2022/03/10 01:17:45;;;;;;;23.07;15.73;;;3.80;99.90;;;;;;6205005;23;20475;-78
2022/03/10 01:20:12;;;;;;;24.67;16.07;;;3.80;99.90;;;;;;6205719;23;20170;-78
2022/03/10 01:22:39;;;;;;;26.40;16.57;;;3.80;99.90;;;;;;6206506;23;20542;-79
2022/03/10 01:25:08;;;;;;;23.00;15.50;;;3.80;99.90;;;;;;6205386;23;20174;-79
2022/03/10 01:27:35;;;;;;;28.43;16.13;;;3.80;99.90;;;;;;6204603;23;20205;-80
2022/03/10 01:30:05;;;;;;;26.90;16.40;;;3.70;99.90;;;;;;6205840;23;20551;-81
2022/03/10 01:32:31;;;;;;;28.10;18.00;;;3.70;99.90;;;;;;6205455;23;20178;-79
2022/03/10 01:34:58;;;;;;;25.37;16.00;;;3.70;99.90;;;;;;6206297;23;20613;-81
2022/03/10 01:37:25;;;;;;;22.13;15.27;;;3.70;99.90;;;;;;6206930;23;20178;-80
2022/03/10 01:39:52;;;;;;;25.60;16.23;;;3.70;99.90;;;;;;6205405;23;20170;-80
2022/03/10 01:42:19;;;;;;;25.03;16.67;;;3.70;99.90;;;;;;6206756;23;20174;-79
2022/03/10 01:44:46;;;;;;;25.60;16.03;;;3.70;99.90;;;;;;6206790;23;20186;-81
2022/03/10 01:47:14;;;;;;;25.80;16.77;;;3.70;99.90;;;;;;6205610;23;20212;-82
2022/03/10 01:49:41;;;;;;;26.43;17.30;;;3.70;99.90;;;;;;6206704;23;20178;-80
2022/03/10 01:52:07;;;;;;;28.50;16.23;;;3.70;99.90;;;;;;6205853;23;20181;-79
2022/03/10 01:54:34;;;;;;;23.50;16.13;;;3.80;99.90;;;;;;6204697;23;20170;-80
2022/03/10 01:57:03;;;;;;;27.73;17.27;;;3.80;99.90;;;;;;6205675;23;20170;-80
2022/03/10 01:59:30;;;;;;;27.07;16.10;;;3.80;99.90;;;;;;6206041;23;20574;-78
2022/03/10 02:01:57;;;;;;;24.33;16.00;;;3.80;99.90;;;;;;6206011;23;20178;-79
2022/03/10 02:04:25;;;;;;;22.93;16.13;;;3.70;99.90;;;;;;6205748;23;20631;-79
2022/03/10 02:06:53;;;;;;;23.37;15.87;;;3.70;99.90;;;;;;6205096;23;20209;-79
2022/03/10 02:12:06;;;;;;;27.90;16.43;;;3.70;99.90;;;;;;6205992;23;20168;-80
2022/03/10 02:17:23;;;;;;;23.83;15.33;;;3.60;99.90;;;;;;6205935;23;20165;-80
2022/03/10 02:19:54;;;;;;;26.10;16.33;;;3.60;99.90;;;;;;6206173;23;20420;-78
2022/03/10 02:22:23;;;;;;;25.17;16.27;;;3.60;99.90;;;;;;6205561;23;20162;-80
2022/03/10 02:24:51;;;;;;;29.43;17.37;;;3.60;99.90;;;;;;6206173;23;20177;-80
2022/03/10 02:27:21;;;;;;;24.57;15.87;;;3.50;99.90;;;;;;6205646;23;20204;-80
2022/03/10 02:29:48;;;;;;;26.23;15.83;;;3.50;99.90;;;;;;6205957;23;20205;-79
2022/03/10 02:32:16;;;;;;;24.67;15.73;;;3.40;99.90;;;;;;6205916;23;20572;-79
2022/03/10 02:34:43;;;;;;;27.93;17.07;;;3.40;99.90;;;;;;6206661;23;20169;-80
2022/03/10 02:37:11;;;;;;;27.67;17.00;;;3.40;99.90;;;;;;6205798;23;20166;-80
2022/03/10 02:39:40;;;;;;;27.33;16.83;;;3.40;99.90;;;;;;6206165;23;20202;-80
2022/03/10 02:42:08;;;;;;;25.97;17.20;;;3.40;99.90;;;;;;6206305;23;20174;-80
2022/03/10 02:44:39;;;;;;;24.03;15.67;;;3.30;99.90;;;;;;6204406;23;20445;-80
2022/03/10 02:47:06;;;;;;;27.63;16.67;;;3.30;99.90;;;;;;6205240;23;20190;-81
2022/03/10 02:49:33;;;;;;;27.97;16.87;;;3.30;99.90;;;;;;6204607;23;20443;-79
2022/03/10 02:52:01;;;;;;;28.47;17.70;;;3.30;99.90;;;;;;6206096;23;20178;-78
2022/03/10 02:54:28;;;;;;;25.67;17.17;;;3.30;99.90;;;;;;6204860;23;20171;-80
2022/03/10 02:56:56;;;;;;;26.80;17.23;;;3.20;99.90;;;;;;6204646;23;20525;-80
2022/03/10 02:59:23;;;;;;;24.30;16.73;;;3.20;99.90;;;;;;6204723;23;20592;-80
2022/03/10 03:01:50;;;;;;;25.37;16.80;;;3.20;99.90;;;;;;6205152;23;20172;-80
2022/03/10 03:04:17;;;;;;;27.50;17.73;;;3.20;99.90;;;;;;6204757;23;20167;-79
2022/03/10 03:06:44;;;;;;;28.23;17.67;;;3.20;99.90;;;;;;6205454;23;20201;-80
2022/03/10 03:09:11;;;;;;;29.67;18.20;;;3.20;99.90;;;;;;6205988;23;20194;-80
2022/03/10 03:11:38;;;;;;;29.63;18.30;;;3.10;99.90;;;;;;6204632;23;20480;-80
2022/03/10 03:14:06;;;;;;;28.00;17.93;;;3.10;99.90;;;;;;6205924;23;20197;-79
2022/03/10 03:16:33;;;;;;;27.63;17.97;;;3.10;99.90;;;;;;6205712;23;20181;-79
2022/03/10 03:19:00;;;;;;;28.87;19.10;;;3.00;99.90;;;;;;6205443;23;20166;-79
2022/03/10 03:21:26;;;;;;;27.00;17.93;;;2.90;99.90;;;;;;6205484;23;20187;-81
2022/03/10 03:23:54;;;;;;;27.97;17.90;;;2.90;99.90;;;;;;6205925;23;20511;-81
2022/03/10 03:26:20;;;;;;;28.87;18.07;;;2.90;99.90;;;;;;6203267;23;20256;-80
2022/03/10 03:28:47;;;;;;;31.43;18.07;;;2.80;99.90;;;;;;6206731;23;20197;-80
2022/03/10 03:31:16;;;;;;;28.03;17.93;;;2.80;99.90;;;;;;6207199;23;20947;-79
2022/03/10 03:33:43;;;;;;;30.67;18.50;;;2.80;99.90;;;;;;6207438;23;20178;-78
2022/03/10 03:36:10;;;;;;;28.53;17.53;;;2.70;99.90;;;;;;6207159;23;20185;-80
2022/03/10 03:38:37;;;;;;;27.03;18.43;;;2.70;99.90;;;;;;6207318;23;20181;-79
2022/03/10 03:41:03;;;;;;;28.77;17.53;;;2.70;99.90;;;;;;6206850;23;20178;-79
2022/03/10 03:43:30;;;;;;;29.97;18.43;;;2.60;99.90;;;;;;6207292;23;20173;-80
2022/03/10 03:45:57;;;;;;;29.13;19.00;;;2.60;99.90;;;;;;6206371;23;20170;-79
2022/03/10 03:48:26;;;;;;;26.60;17.50;;;2.60;99.90;;;;;;6207036;23;20284;-79
2022/03/10 03:50:53;;;;;;;29.87;17.97;;;2.50;99.90;;;;;;6207205;23;20200;-80
2022/03/10 03:53:20;;;;;;;29.40;18.10;;;2.50;99.90;;;;;;6206671;23;20174;-79
2022/03/10 03:55:47;;;;;;;29.03;18.47;;;2.50;99.90;;;;;;6205915;23;20477;-78
2022/03/10 03:58:14;;;;;;;33.10;19.10;;;2.50;99.90;;;;;;6206907;23;20170;-79
2022/03/10 04:00:40;;;;;;;31.60;19.27;;;2.50;99.90;;;;;;6205771;23;20177;-79
2022/03/10 04:03:09;;;;;;;27.77;18.40;;;2.50;99.90;;;;;;6206973;23;20162;-78
2022/03/10 04:05:37;;;;;;;29.53;18.60;;;2.50;99.90;;;;;;6206543;23;20745;-79
2022/03/10 04:08:05;;;;;;;29.83;19.03;;;2.40;99.90;;;;;;6207594;23;20197;-79
2022/03/10 04:10:32;;;;;;;27.83;18.07;;;2.40;99.90;;;;;;6207387;23;20174;-78
2022/03/10 04:12:59;;;;;;;29.17;19.30;;;2.40;99.90;;;;;;6207412;23;20567;-79
2022/03/10 04:15:26;;;;;;;31.67;19.00;;;2.40;99.90;;;;;;6206265;23;20189;-78
2022/03/10 04:17:53;;;;;;;30.27;20.20;;;2.40;99.90;;;;;;6207406;23;20180;-80
2022/03/10 04:20:20;;;;;;;29.27;18.33;;;2.30;99.90;;;;;;6206277;23;20207;-79
2022/03/10 04:22:48;;;;;;;30.80;18.40;;;2.30;99.90;;;;;;6206899;23;20182;-80
2022/03/10 04:25:15;;;;;;;31.40;19.30;;;2.30;99.90;;;;;;6206913;23;20185;-80
2022/03/10 04:27:42;;;;;;;28.07;18.97;;;2.30;99.90;;;;;;6207934;23;20198;-79
2022/03/10 04:30:10;;;;;;;32.50;18.83;;;2.30;99.90;;;;;;6206879;23;20177;-78
2022/03/10 04:32:42;;;;;;;30.40;19.53;;;2.30;99.90;;;;;;6205870;23;20181;-79
2022/03/10 04:35:09;;;;;;;30.77;20.20;;;2.30;99.90;;;;;;6209234;23;20170;-78
2022/03/10 04:37:36;;;;;;;31.43;19.17;;;2.40;99.90;;;;;;6209182;23;20170;-79
2022/03/10 04:40:06;;;;;;;31.47;18.83;;;2.40;99.90;;;;;;6208549;23;20185;-80
2022/03/10 04:42:33;;;;;;;33.90;19.47;;;2.40;99.90;;;;;;6205864;23;20364;-79
2022/03/10 04:44:59;;;;;;;29.80;19.63;;;2.40;99.90;;;;;;6207444;23;20181;-80
2022/03/10 04:47:26;;;;;;;29.57;18.97;;;2.40;99.90;;;;;;6207315;23;20500;-79
2022/03/10 04:49:53;;;;;;;30.97;19.50;;;2.40;99.90;;;;;;6206016;23;20193;-79
2022/03/10 04:52:20;;;;;;;32.40;18.80;;;2.40;99.90;;;;;;6206761;23;20180;-78
2022/03/10 04:54:47;;;;;;;28.67;18.40;;;2.40;99.90;;;;;;6205962;23;20170;-79
2022/03/10 04:57:15;;;;;;;29.50;19.17;;;2.40;99.90;;;;;;6205783;23;20559;-79
2022/03/10 04:59:42;;;;;;;33.87;20.70;;;2.40;99.90;;;;;;6206671;23;20169;-80
2022/03/10 05:02:09;;;;;;;32.87;21.17;;;2.40;99.90;;;;;;6206568;23;20607;-79
2022/03/10 05:04:36;;;;;;;31.00;19.60;;;2.40;99.90;;;;;;6206080;23;20204;-80
2022/03/10 05:07:04;;;;;;;32.97;20.90;;;2.40;99.90;;;;;;6206432;23;20206;-80
2022/03/10 05:09:31;;;;;;;30.93;19.40;;;2.30;99.90;;;;;;6206396;23;20197;-80
2022/03/10 05:11:57;;;;;;;31.33;20.07;;;2.30;99.90;;;;;;6205423;23;20178;-80
2022/03/10 05:14:26;;;;;;;29.40;19.37;;;2.30;99.90;;;;;;6206253;23;20532;-77
2022/03/10 05:16:52;;;;;;;29.20;17.80;;;2.30;99.90;;;;;;6206246;23;20173;-80
2022/03/10 05:19:19;;;;;;;31.00;19.13;;;2.30;99.90;;;;;;6205805;23;20174;-79
2022/03/10 05:21:46;;;;;;;30.70;19.70;;;2.20;99.90;;;;;;6206781;23;20177;-79
2022/03/10 05:24:13;;;;;;;30.37;20.03;;;2.20;99.90;;;;;;6206170;23;20178;-79
2022/03/10 05:26:40;;;;;;;29.53;18.30;;;2.20;99.90;;;;;;6206627;23;20178;-80
2022/03/10 05:29:07;;;;;;;30.67;19.77;;;2.20;99.90;;;;;;6205733;23;20201;-78
2022/03/10 05:31:35;;;;;;;34.17;21.13;;;2.10;99.90;;;;;;6205607;23;20170;-80
2022/03/10 05:34:04;;;;;;;34.67;20.43;;;2.10;99.90;;;;;;6206521;23;20213;-80
2022/03/10 05:36:31;;;;;;;31.27;20.20;;;2.10;99.90;;;;;;6205978;23;20170;-78
2022/03/10 05:38:57;;;;;;;31.70;20.27;;;2.10;99.90;;;;;;6204771;23;20170;-79
2022/03/10 05:41:24;;;;;;;32.10;20.90;;;2.00;99.90;;;;;;6205187;23;20181;-80
2022/03/10 05:43:51;;;;;;;34.67;20.40;;;2.00;99.90;;;;;;6205650;23;20458;-80
2022/03/10 05:46:18;;;;;;;30.30;20.80;;;2.00;99.90;;;;;;6205955;23;20184;-78
2022/03/10 05:48:46;;;;;;;31.50;19.50;;;2.00;99.90;;;;;;6205263;23;20194;-80
2022/03/10 05:51:13;;;;;;;30.00;20.17;;;2.00;99.90;;;;;;6205021;23;20189;-79
2022/03/10 05:53:40;;;;;;;35.90;21.13;;;2.00;99.90;;;;;;6204104;23;20166;-79
2022/03/10 05:56:06;;;;;;;30.10;19.53;;;2.00;99.90;;;;;;6204989;23;20174;-79
2022/03/10 05:58:33;;;;;;;31.90;19.10;;;1.90;99.90;;;;;;6205555;23;20491;-77
2022/03/10 06:01:00;;;;;;;31.33;20.47;;;1.90;99.90;;;;;;6204809;23;20857;-79
2022/03/10 06:03:27;;;;;;;30.47;19.40;;;1.90;99.90;;;;;;6204645;23;20281;-79
2022/03/10 06:05:55;;;;;;;32.83;20.07;;;1.90;99.90;;;;;;6204928;23;20746;-78
2022/03/10 06:08:22;;;;;;;32.40;20.37;;;1.90;99.90;;;;;;6205076;23;20198;-79
2022/03/10 06:10:48;;;;;;;35.97;20.90;;;1.90;99.90;;;;;;6206648;23;20189;-79
2022/03/10 06:13:15;;;;;;;30.77;20.37;;;1.90;99.90;;;;;;6205905;23;20190;-79
2022/03/10 06:15:42;;;;;;;31.73;20.53;;;1.90;99.90;;;;;;6204821;23;20177;-79
2022/03/10 06:18:09;;;;;;;31.53;20.20;;;1.80;99.90;;;;;;6206175;23;20178;-79
2022/03/10 06:20:36;;;;;;;36.10;21.93;;;1.80;99.90;;;;;;6203803;23;20724;-79
2022/03/10 06:23:04;;;;;;;35.17;21.67;;;1.80;99.90;;;;;;6204871;23;20177;-80
2022/03/10 06:25:31;;;;;;;32.73;19.80;;;1.80;99.90;;;;;;6204364;23;20177;-80
2022/03/10 06:27:58;;;;;;;30.47;20.50;;;1.80;99.90;;;;;;6204592;23;20312;-79
2022/03/10 06:30:24;;;;;;;37.30;22.23;;;1.80;99.90;;;;;;6204876;23;20220;-79
2022/03/10 06:32:51;;;;;;;36.63;21.80;;;1.80;99.90;;;;;;6205181;23;20181;-78
2022/03/10 06:35:18;;;;;;;37.00;21.97;;;1.80;99.90;;;;;;6203448;23;20176;-79
2022/03/10 06:37:46;;;;;;;36.70;22.00;;;1.90;99.90;;;;;;6204948;23;20174;-78
2022/03/10 06:40:15;;;;;;;36.57;22.20;;;1.90;99.90;;;;;;6204164;23;20273;-79
2022/03/10 06:42:41;;;;;;;33.57;20.73;;;1.90;99.90;;;;;;6203940;23;20170;-79
2022/03/10 06:45:09;;;;;;;38.90;21.77;;;2.00;99.90;;;;;;6205344;23;20208;-78
2022/03/10 06:47:36;;;;;;;38.60;23.30;;;2.00;99.90;;;;;;6205136;23;20198;-79
2022/03/10 06:50:04;;;;;;;37.47;21.97;;;2.10;99.90;;;;;;6204674;23;20212;-79
2022/03/10 06:52:32;;;;;;;40.70;24.10;;;2.10;99.90;;;;;;6204266;23;20173;-79
2022/03/10 06:54:58;;;;;;;35.23;21.07;;;2.20;99.90;;;;;;6204385;23;20182;-78
2022/03/10 06:57:27;;;;;;;35.13;22.30;;;2.20;99.90;;;;;;6203837;23;20170;-78
2022/03/10 06:59:53;;;;;;;34.07;21.30;;;2.30;99.90;;;;;;6205095;23;20476;-79
2022/03/10 07:02:22;;;;;;;33.27;21.53;;;2.30;99.90;;;;;;6204530;23;20166;-79
2022/03/10 07:04:49;;;;;;;36.33;22.83;;;2.40;99.90;;;;;;6205779;23;20170;-79
2022/03/10 07:07:16;;;;;;;33.17;21.20;;;2.40;99.90;;;;;;6206766;23;20750;-79
2022/03/10 07:09:43;;;;;;;35.97;22.27;;;2.40;99.90;;;;;;6205872;23;20194;-78
2022/03/10 07:12:10;;;;;;;36.73;21.70;;;2.50;99.90;;;;;;6207105;23;20214;-80
2022/03/10 07:14:39;;;;;;;33.57;21.17;;;2.50;99.90;;;;;;6206023;23;20197;-78
2022/03/10 07:17:06;;;;;;;33.30;21.93;;;2.60;99.90;;;;;;6206943;23;20178;-79
2022/03/10 07:19:32;;;;;;;33.77;21.70;;;2.60;99.90;;;;;;6206125;23;20248;-77
2022/03/10 07:21:59;;;;;;;31.93;21.30;;;2.70;99.90;;;;;;6206829;23;20280;-80
2022/03/10 07:24:26;;;;;;;36.10;22.50;;;2.80;99.90;;;;;;6206033;23;20199;-78
2022/03/10 07:26:53;;;;;;;39.23;24.33;;;2.80;99.90;;;;;;6207419;23;20678;-78
2022/03/10 07:29:20;;;;;;;34.17;22.37;;;2.90;99.90;;;;;;6206070;23;20198;-79
2022/03/10 07:31:48;;;;;;;39.00;22.43;;;2.90;99.90;;;;;;6206746;23;20542;-78
2022/03/10 07:34:15;;;;;;;38.60;23.53;;;3.00;99.90;;;;;;6206717;23;20181;-78
2022/03/10 07:36:43;;;;;;;35.23;22.40;;;3.10;99.90;;;;;;6206850;23;20752;-79
2022/03/10 07:39:10;;;;;;;38.10;23.60;;;3.10;99.90;;;;;;6207071;23;20178;-78
2022/03/10 07:41:37;;;;;;;40.90;22.60;;;3.20;99.90;;;;;;6206840;23;20197;-79
2022/03/10 07:44:04;;;;;;;37.00;24.13;;;3.30;99.90;;;;;;6207413;23;20236;-80
2022/03/10 07:46:31;;;;;;;36.07;22.90;;;3.40;99.90;;;;;;6205954;23;20587;-79
2022/03/10 07:48:59;;;;;;;35.60;23.97;;;3.50;99.90;;;;;;6206539;23;20545;-79
2022/03/10 07:51:26;;;;;;;38.63;24.10;;;3.60;99.90;;;;;;6206185;23;20186;-80
2022/03/10 07:53:52;;;;;;;42.70;24.40;;;3.70;99.90;;;;;;6205863;23;20177;-77
2022/03/10 07:56:19;;;;;;;34.57;21.70;;;3.90;99.90;;;;;;6207180;23;20181;-80
2022/03/10 07:58:46;;;;;;;34.53;21.97;;;4.00;99.90;;;;;;6207137;23;20770;-81
2022/03/10 08:01:13;;;;;;;36.53;22.47;;;4.10;99.90;;;;;;6206633;23;20174;-79
2022/03/10 08:03:40;;;;;;;39.93;24.47;;;4.20;99.90;;;;;;6206221;23;20200;-80
2022/03/10 08:06:08;;;;;;;34.73;22.53;;;4.30;99.90;;;;;;6199035;23;20209;-80
2022/03/10 08:08:36;;;;;;;32.77;21.63;;;4.40;99.90;;;;;;6176062;23;20167;-80
2022/03/10 08:11:03;;;;;;;36.03;23.00;;;4.60;99.90;;;;;;6177079;23;20170;-79
2022/03/10 08:13:31;;;;;;;35.63;22.53;;;4.80;99.90;;;;;;6175229;23;20884;-78
2022/03/10 08:15:58;;;;;;;35.23;20.30;;;4.90;99.90;;;;;;6176796;23;20205;-78
2022/03/10 08:18:25;;;;;;;31.50;20.80;;;4.90;99.90;;;;;;6175646;23;20209;-78
2022/03/10 08:20:52;;;;;;;31.73;22.10;;;5.10;99.90;;;;;;6176097;23;20171;-79
2022/03/10 08:23:21;;;;;;;35.50;22.17;;;5.20;99.90;;;;;;6176286;23;20209;-79
2022/03/10 08:25:48;;;;;;;35.50;22.90;;;5.40;99.90;;;;;;6176288;23;20654;-77
2022/03/10 08:31:36;;;;;;;32.27;20.13;;;5.70;99.90;;;;;;6147095;23;20268;-79
2022/03/10 08:34:03;;;;;;;34.63;21.60;;;5.80;99.90;;;;;;6176260;23;20174;-80
2022/03/10 08:36:31;;;;;;;41.17;22.30;;;5.90;99.90;;;;;;6172969;23;20171;-79
2022/03/10 08:39:00;;;;;;;32.87;20.33;;;6.00;99.90;;;;;;6173951;23;20265;-80
2022/03/10 08:41:26;;;;;;;31.57;19.90;;;6.10;99.90;;;;;;6172765;23;20174;-79
2022/03/10 08:43:53;;;;;;;30.00;20.10;;;6.20;99.90;;;;;;6174258;23;20473;-79
2022/03/10 08:46:20;;;;;;;33.07;21.50;;;6.30;99.90;;;;;;6161215;23;20467;-79
2022/03/10 08:48:47;;;;;;;32.77;20.53;;;6.30;99.90;;;;;;6173984;23;20202;-79
2022/03/10 08:51:14;;;;;;;33.53;21.30;;;6.50;99.90;;;;;;6174003;23;20197;-79
2022/03/10 08:53:41;;;;;;;32.50;20.30;;;6.60;99.90;;;;;;6176909;23;20179;-78
2022/03/10 08:56:10;;;;;;;29.13;20.33;;;6.70;99.90;;;;;;6175997;23;20166;-79
2022/03/10 08:58:37;;;;;;;34.90;21.53;;;6.90;99.90;;;;;;6175122;23;20170;-78
2022/03/10 09:01:04;;;;;;;34.97;21.63;;;7.10;99.90;;;;;;6176217;23;20174;-79
2022/03/10 09:03:30;;;;;;;34.07;21.00;;;7.10;99.90;;;;;;6174571;23;20529;-79
2022/03/10 09:05:57;;;;;;;34.47;20.30;;;7.30;99.90;;;;;;6179535;23;20213;-79
2022/03/10 09:08:24;;;;;;;28.57;19.47;;;7.40;99.90;;;;;;6205387;23;20248;-79
2022/03/10 09:10:51;;;;;;;30.27;20.27;;;7.60;99.90;;;;;;6205768;23;20194;-79
2022/03/10 09:13:19;;;;;;;32.20;20.47;;;7.70;99.90;;;;;;6205747;23;20559;-79
2022/03/10 09:15:46;;;;;;;29.90;19.30;;;7.70;99.90;;;;;;6205943;23;20579;-79
2022/03/10 09:18:14;;;;;;;30.87;20.60;;;7.80;99.90;;;;;;6204236;23;20202;-78
2022/03/10 09:20:41;;;;;;;30.90;19.60;;;8.00;99.90;;;;;;6205842;23;20838;-79
2022/03/10 09:23:08;;;;;;;31.33;19.03;;;8.10;99.90;;;;;;6206540;23;20197;-78
2022/03/10 09:25:35;;;;;;;31.90;20.43;;;8.20;99.90;;;;;;6204461;23;20181;-78
2022/03/10 09:28:02;;;;;;;27.60;19.27;;;8.40;99.90;;;;;;6206191;23;20193;-79
2022/03/10 09:30:30;;;;;;;32.53;20.27;;;8.60;99.90;;;;;;6203923;23;20633;-78
2022/03/10 09:32:58;;;;;;;33.93;20.37;;;8.80;99.90;;;;;;6205242;23;20170;-79
2022/03/10 09:35:26;;;;;;;34.13;19.90;;;8.90;99.90;;;;;;6204565;23;20178;-77
2022/03/10 09:37:53;;;;;;;31.10;18.93;;;9.10;99.90;;;;;;6204364;23;20253;-78
2022/03/10 09:40:20;;;;;;;30.97;19.50;;;9.30;99.90;;;;;;6203172;23;20562;-79
2022/03/10 09:42:48;;;;;;;28.10;18.97;;;9.50;99.90;;;;;;6205013;23;20178;-78
2022/03/10 09:45:17;;;;;;;31.23;19.33;;;9.60;99.90;;;;;;6203309;23;20176;-78
2022/03/10 09:47:47;;;;;;;31.30;20.13;;;9.80;99.90;;;;;;6204369;23;20181;-76
2022/03/10 09:50:17;;;;;;;32.53;19.97;;;9.90;99.90;;;;;;6203384;23;20198;-80
2022/03/10 09:52:45;;;;;;;30.03;20.53;;;10.10;99.90;;;;;;6202507;23;20178;-79
2022/03/10 09:55:16;;;;;;;28.17;18.97;;;10.30;99.90;;;;;;6204464;23;20180;-79
2022/03/10 09:57:45;;;;;;;32.20;20.23;;;10.40;99.90;;;;;;6204265;23;20189;-79
2022/03/10 10:00:14;;;;;;;31.67;20.43;;;10.60;99.90;;;;;;6203821;23;20451;-79
2022/03/10 10:02:41;;;;;;;35.57;19.47;;;10.70;99.90;;;;;;6204163;23;20228;-78
2022/03/10 10:05:25;;;;;;;28.03;19.50;;;10.90;99.90;;;;;;6204689;23;20185;-80
2022/03/10 10:08:08;;;;;;;31.57;20.37;;;11.00;99.90;;;;;;6201412;23;20212;-80
2022/03/10 10:10:36;;;;;;;31.37;19.57;;;11.20;99.90;;;;;;6204753;23;20571;-79
2022/03/10 10:13:06;;;;;;;30.83;20.20;;;11.30;99.90;;;;;;6203478;23;20170;-78
2022/03/10 10:15:37;;;;;;;34.27;21.10;;;11.50;99.90;;;;;;6204187;23;20170;-80
2022/03/10 10:18:07;;;;;;;29.73;20.00;;;11.70;99.90;;;;;;6204386;23;20485;-78
2022/03/10 10:20:47;;;;;;;31.10;19.77;;;11.80;99.90;;;;;;6217288;23;20253;-78
2022/03/10 10:23:19;;;;;;;27.50;17.87;;;11.90;99.90;;;;;;6223316;23;20190;-78
2022/03/10 10:25:50;;;;;;;29.47;19.63;;;12.20;99.90;;;;;;6215062;23;20166;-79
2022/03/10 10:28:27;;;;;;;27.80;19.07;;;12.30;99.90;;;;;;6205462;23;20193;-80
2022/03/10 10:30:59;;;;;;;31.20;19.50;;;12.40;99.90;;;;;;6205658;23;20216;-80
2022/03/10 10:33:26;;;;;;;28.53;19.40;;;12.60;99.90;;;;;;6206640;23;20170;-80
2022/03/10 10:36:12;;;;;;;28.50;19.70;;;12.60;99.90;;;;;;6205445;23;20185;-81
2022/03/10 10:38:40;;;;;;;29.77;19.10;;;12.60;99.90;;;;;;6206178;23;20253;-81
2022/03/10 10:41:23;;;;;;;30.07;19.13;;;12.70;99.90;;;;;;6204698;23;20834;-80
2022/03/10 10:43:52;;;;;;;30.57;19.30;;;12.60;99.90;;;;;;6205639;23;20228;-81
2022/03/10 10:46:28;;;;;;;29.07;19.07;;;12.70;99.90;;;;;;6206002;23;20177;-78
2022/03/10 10:48:55;;;;;;;26.80;18.73;;;12.70;99.90;;;;;;6205088;23;20173;-77
2022/03/10 10:51:37;;;;;;;29.50;19.67;;;12.90;99.90;;;;;;6205507;23;20206;-80
2022/03/10 10:54:07;;;;;;;27.60;19.37;;;13.10;99.90;;;;;;6205807;23;20218;-79
2022/03/10 10:56:35;;;;;;;29.10;20.13;;;13.20;99.90;;;;;;6204811;23;20170;-79
2022/03/10 10:59:03;;;;;;;29.50;19.43;;;13.20;99.90;;;;;;6205742;23;20170;-79
2022/03/10 11:01:35;;;;;;;26.07;19.50;;;13.30;99.90;;;;;;6204921;23;20189;-80
2022/03/10 11:04:05;;;;;;;26.87;18.67;;;13.40;99.90;;;;;;6203977;23;20180;-80
2022/03/10 11:06:35;;;;;;;30.47;20.13;;;13.50;99.90;;;;;;6204538;23;20201;-80
2022/03/10 11:09:03;;;;;;;27.23;19.10;;;13.70;99.90;;;;;;6204880;23;20205;-79
2022/03/10 11:11:31;;;;;;;28.17;19.50;;;13.70;99.90;;;;;;6205263;23;20229;-80
2022/03/10 11:13:58;;;;;;;28.40;20.23;;;13.80;99.90;;;;;;6205485;23;20559;-79
2022/03/10 11:16:26;;;;;;;28.80;19.63;;;13.90;99.90;;;;;;6203602;23;20181;-79
2022/03/10 11:18:53;;;;;;;27.30;19.47;;;14.00;99.90;;;;;;6204918;23;20181;-78
2022/03/10 11:21:48;;;;;;;25.47;17.93;;;14.20;99.90;;;;;;6205514;23;20198;-79
2022/03/10 11:24:49;;;;;;;29.43;18.53;;;14.30;99.90;;;;;;6204835;23;20166;-80
2022/03/10 11:27:18;;;;;;;27.17;17.60;;;14.40;99.90;;;;;;6189411;23;20189;-78
2022/03/10 11:29:49;;;;;;;25.67;18.77;;;14.50;99.90;;;;;;6205313;23;20194;-81
2022/03/10 11:32:16;;;;;;;27.90;19.63;;;14.70;99.90;;;;;;6203945;23;20182;-79
2022/03/10 11:34:47;;;;;;;27.03;19.60;;;14.60;99.90;;;;;;6206243;23;20173;-80
2022/03/10 11:37:35;;;;;;;24.87;17.70;;;14.70;99.90;;;;;;6203720;23;20185;-81
2022/03/10 11:40:04;;;;;;;26.77;18.70;;;14.80;99.90;;;;;;6205054;23;20166;-81
2022/03/10 11:42:32;;;;;;;24.13;17.93;;;14.90;99.90;;;;;;6204750;23;20440;-80
2022/03/10 11:45:10;;;;;;;29.57;19.40;;;15.00;99.90;;;;;;6203870;23;20182;-80
2022/03/10 11:47:38;;;;;;;23.50;18.13;;;14.90;99.90;;;;;;6205283;23;20563;-81
2022/03/10 11:50:27;;;;;;;24.87;17.87;;;15.00;99.90;;;;;;6207177;23;20202;-78
2022/03/10 11:53:00;;;;;;;26.80;19.37;;;15.20;99.90;;;;;;6200636;23;20502;-78
2022/03/10 11:55:40;;;;;;;25.07;16.93;;;15.30;99.90;;;;;;6207111;23;20870;-81
2022/03/10 11:58:08;;;;;;;28.17;18.13;;;15.50;99.90;;;;;;6206619;23;20166;-78
2022/03/10 12:00:50;;;;;;;24.07;17.87;;;15.50;99.90;;;;;;6206635;23;20603;-80
2022/03/10 12:03:20;;;;;;;29.67;18.33;;;15.50;99.90;;;;;;6206464;23;20181;-80
2022/03/10 12:05:53;;;;;;;26.33;17.17;;;15.40;99.90;;;;;;6205795;23;20220;-80
2022/03/10 12:08:23;;;;;;;26.00;16.93;;;15.40;99.90;;;;;;6207436;23;20170;-78
2022/03/10 12:10:50;;;;;;;25.33;17.33;;;15.50;99.90;;;;;;6206596;23;20688;-80
2022/03/10 12:13:26;;;;;;;23.95;17.55;;;15.60;99.90;;;;;;6205434;23;20178;-79
2022/03/10 12:15:53;;;;;;;24.67;16.43;;;15.60;99.90;;;;;;6207485;23;20181;-82
2022/03/10 12:18:23;;;;;;;22.67;16.67;;;15.50;99.90;;;;;;6207278;23;20204;-81
2022/03/10 12:20:53;;;;;;;22.63;15.70;;;15.60;99.90;;;;;;6206513;23;20167;-80
2022/03/10 12:23:25;;;;;;;24.00;16.90;;;15.80;99.90;;;;;;6207179;23;20221;-78
2022/03/10 12:25:54;;;;;;;26.93;17.10;;;15.80;99.90;;;;;;6206926;23;20174;-78
2022/03/10 12:28:25;;;;;;;22.07;14.83;;;15.80;99.90;;;;;;6205809;23;20178;-78
2022/03/10 12:31:02;;;;;;;24.67;15.50;;;15.90;99.90;;;;;;6205958;23;20263;-78
2022/03/10 12:33:29;;;;;;;24.87;15.17;;;16.00;99.90;;;;;;6206086;23;20166;-78
2022/03/10 12:35:56;;;;;;;24.77;16.50;;;15.90;99.90;;;;;;6206737;23;20177;-78
2022/03/10 12:38:38;;;;;;;22.40;15.53;;;15.90;99.90;;;;;;6206159;23;20174;-77
2022/03/10 12:41:05;;;;;;;23.73;14.93;;;16.10;99.90;;;;;;6205485;23;20733;-78
2022/03/10 12:43:33;;;;;;;21.67;15.02;;;16.10;99.90;;;;;;6205857;23;20177;-77
2022/03/10 12:46:00;;;;;;;22.83;13.83;;;16.10;99.90;;;;;;6206443;23;20185;-79
2022/03/10 12:48:32;;;;;;;23.93;14.30;;;16.10;99.90;;;;;;6205331;23;20173;-79
2022/03/10 12:50:59;;;;;;;24.53;14.40;;;16.00;99.90;;;;;;6206652;23;20202;-80